sensor_id;sensor_type;location;lat;lon;timestamp;P1;durP1;ratioP1;P2;durP2;ratioP2
5898;SDS011;2975;50.956;6.962;2022-12-18T00:01:41;14.50;;;7.30;;
5898;SDS011;2975;50.956;6.962;2022-12-18T00:04:07;20.43;;;7.63;;
5898;SDS011;2975;50.956;6.962;2022-12-18T00:06:40;14.67;;;7.50;;
5898;SDS011;2975;50.956;6.962;2022-12-18T00:09:05;17.03;;;7.17;;
5898;SDS011;2975;50.956;6.962;2022-12-18T00:11:31;14.03;;;7.07;;
5898;SDS011;2975;50.956;6.962;2022-12-18T00:13:57;12.70;;;7.33;;
5898;SDS011;2975;50.956;6.962;2022-12-18T00:16:25;12.87;;;6.90;;
5898;SDS011;2975;50.956;6.962;2022-12-18T00:18:52;17.87;;;8.07;;
5898;SDS011;2975;50.956;6.962;2022-12-18T00:21:19;15.30;;;7.93;;
5898;SDS011;2975;50.956;6.962;2022-12-18T00:23:46;14.47;;;7.57;;
5898;SDS011;2975;50.956;6.962;2022-12-18T00:26:31;17.07;;;7.93;;
5898;SDS011;2975;50.956;6.962;2022-12-18T00:28:59;13.10;;;7.63;;
5898;SDS011;2975;50.956;6.962;2022-12-18T00:31:25;13.20;;;6.80;;
5898;SDS011;2975;50.956;6.962;2022-12-18T00:33:53;17.53;;;8.63;;
5898;SDS011;2975;50.956;6.962;2022-12-18T00:36:26;17.93;;;7.93;;
5898;SDS011;2975;50.956;6.962;2022-12-18T00:38:54;15.10;;;7.63;;
5898;SDS011;2975;50.956;6.962;2022-12-18T00:41:21;15.43;;;7.33;;
5898;SDS011;2975;50.956;6.962;2022-12-18T00:44:07;15.93;;;7.03;;
5898;SDS011;2975;50.956;6.962;2022-12-18T00:46:35;15.17;;;7.20;;
5898;SDS011;2975;50.956;6.962;2022-12-18T00:49:01;13.00;;;7.40;;
5898;SDS011;2975;50.956;6.962;2022-12-18T00:51:27;14.47;;;7.40;;
5898;SDS011;2975;50.956;6.962;2022-12-18T00:53:53;15.27;;;7.87;;
5898;SDS011;2975;50.956;6.962;2022-12-18T00:56:18;15.80;;;8.03;;
5898;SDS011;2975;50.956;6.962;2022-12-18T00:58:47;20.03;;;7.73;;
5898;SDS011;2975;50.956;6.962;2022-12-18T01:01:12;16.73;;;8.03;;
5898;SDS011;2975;50.956;6.962;2022-12-18T01:03:39;16.73;;;7.83;;
5898;SDS011;2975;50.956;6.962;2022-12-18T01:06:05;14.47;;;8.17;;
5898;SDS011;2975;50.956;6.962;2022-12-18T01:08:35;17.77;;;8.67;;
5898;SDS011;2975;50.956;6.962;2022-12-18T01:11:06;16.70;;;9.17;;
5898;SDS011;2975;50.956;6.962;2022-12-18T01:13:33;16.13;;;8.03;;
5898;SDS011;2975;50.956;6.962;2022-12-18T01:15:58;16.27;;;8.23;;
5898;SDS011;2975;50.956;6.962;2022-12-18T01:18:24;17.07;;;7.87;;
5898;SDS011;2975;50.956;6.962;2022-12-18T01:20:49;14.73;;;6.87;;
5898;SDS011;2975;50.956;6.962;2022-12-18T01:23:15;17.50;;;8.30;;
5898;SDS011;2975;50.956;6.962;2022-12-18T01:25:41;20.00;;;8.10;;
5898;SDS011;2975;50.956;6.962;2022-12-18T01:28:06;15.73;;;7.97;;
5898;SDS011;2975;50.956;6.962;2022-12-18T01:30:32;14.33;;;8.00;;
5898;SDS011;2975;50.956;6.962;2022-12-18T01:32:57;13.63;;;7.07;;
5898;SDS011;2975;50.956;6.962;2022-12-18T01:35:23;13.60;;;7.00;;
5898;SDS011;2975;50.956;6.962;2022-12-18T01:37:48;16.03;;;8.60;;
5898;SDS011;2975;50.956;6.962;2022-12-18T01:40:14;13.67;;;7.13;;
5898;SDS011;2975;50.956;6.962;2022-12-18T01:42:40;14.80;;;7.23;;
5898;SDS011;2975;50.956;6.962;2022-12-18T01:45:27;15.63;;;7.57;;
5898;SDS011;2975;50.956;6.962;2022-12-18T01:47:54;11.93;;;6.73;;
5898;SDS011;2975;50.956;6.962;2022-12-18T01:55:43;15.67;;;7.43;;
5898;SDS011;2975;50.956;6.962;2022-12-18T01:58:14;15.30;;;8.43;;
5898;SDS011;2975;50.956;6.962;2022-12-18T02:00:41;14.90;;;7.40;;
5898;SDS011;2975;50.956;6.962;2022-12-18T02:09:52;14.30;;;7.47;;
5898;SDS011;2975;50.956;6.962;2022-12-18T02:12:34;17.00;;;8.40;;
5898;SDS011;2975;50.956;6.962;2022-12-18T02:28:42;12.87;;;7.30;;
5898;SDS011;2975;50.956;6.962;2022-12-18T02:31:15;13.33;;;7.20;;
5898;SDS011;2975;50.956;6.962;2022-12-18T02:33:44;10.90;;;6.83;;
5898;SDS011;2975;50.956;6.962;2022-12-18T02:36:11;11.27;;;6.67;;
5898;SDS011;2975;50.956;6.962;2022-12-18T02:38:39;15.13;;;7.63;;
5898;SDS011;2975;50.956;6.962;2022-12-18T02:41:06;12.27;;;6.77;;
5898;SDS011;2975;50.956;6.962;2022-12-18T02:43:33;12.80;;;6.57;;
5898;SDS011;2975;50.956;6.962;2022-12-18T02:45:59;15.80;;;7.63;;
5898;SDS011;2975;50.956;6.962;2022-12-18T02:48:31;14.20;;;7.23;;
5898;SDS011;2975;50.956;6.962;2022-12-18T02:53:45;13.67;;;6.90;;
5898;SDS011;2975;50.956;6.962;2022-12-18T02:56:33;15.17;;;6.97;;
5898;SDS011;2975;50.956;6.962;2022-12-18T02:59:08;11.97;;;6.97;;
5898;SDS011;2975;50.956;6.962;2022-12-18T03:04:19;12.23;;;5.93;;
5898;SDS011;2975;50.956;6.962;2022-12-18T03:06:53;13.07;;;7.10;;
5898;SDS011;2975;50.956;6.962;2022-12-18T03:09:23;14.77;;;7.20;;
5898;SDS011;2975;50.956;6.962;2022-12-18T03:11:56;14.77;;;6.70;;
5898;SDS011;2975;50.956;6.962;2022-12-18T03:14:48;11.37;;;7.20;;
5898;SDS011;2975;50.956;6.962;2022-12-18T03:17:25;11.03;;;7.50;;
5898;SDS011;2975;50.956;6.962;2022-12-18T03:19:52;12.87;;;7.40;;
5898;SDS011;2975;50.956;6.962;2022-12-18T03:22:22;15.33;;;7.30;;
5898;SDS011;2975;50.956;6.962;2022-12-18T03:24:52;11.97;;;6.60;;
5898;SDS011;2975;50.956;6.962;2022-12-18T03:27:21;13.77;;;8.03;;
5898;SDS011;2975;50.956;6.962;2022-12-18T03:29:55;15.87;;;7.60;;
5898;SDS011;2975;50.956;6.962;2022-12-18T03:32:33;15.43;;;8.30;;
5898;SDS011;2975;50.956;6.962;2022-12-18T03:35:07;15.23;;;7.77;;
5898;SDS011;2975;50.956;6.962;2022-12-18T03:37:35;11.33;;;6.43;;
5898;SDS011;2975;50.956;6.962;2022-12-18T03:40:01;13.50;;;7.07;;
5898;SDS011;2975;50.956;6.962;2022-12-18T03:42:40;12.53;;;6.60;;
5898;SDS011;2975;50.956;6.962;2022-12-18T03:45:14;13.63;;;7.50;;
5898;SDS011;2975;50.956;6.962;2022-12-18T03:50:33;12.23;;;6.67;;
5898;SDS011;2975;50.956;6.962;2022-12-18T03:56:05;15.93;;;6.90;;
5898;SDS011;2975;50.956;6.962;2022-12-18T03:58:33;13.20;;;7.07;;
5898;SDS011;2975;50.956;6.962;2022-12-18T04:01:01;13.23;;;7.57;;
5898;SDS011;2975;50.956;6.962;2022-12-18T04:03:33;10.70;;;7.23;;
5898;SDS011;2975;50.956;6.962;2022-12-18T04:06:00;11.93;;;7.33;;
5898;SDS011;2975;50.956;6.962;2022-12-18T04:08:27;17.10;;;7.57;;
5898;SDS011;2975;50.956;6.962;2022-12-18T04:10:54;13.93;;;7.50;;
5898;SDS011;2975;50.956;6.962;2022-12-18T04:13:33;13.83;;;7.70;;
5898;SDS011;2975;50.956;6.962;2022-12-18T04:16:01;17.83;;;7.53;;
5898;SDS011;2975;50.956;6.962;2022-12-18T04:18:27;14.67;;;7.33;;
5898;SDS011;2975;50.956;6.962;2022-12-18T04:20:52;12.30;;;7.57;;
5898;SDS011;2975;50.956;6.962;2022-12-18T04:23:18;18.17;;;7.60;;
5898;SDS011;2975;50.956;6.962;2022-12-18T04:25:44;13.73;;;7.13;;
5898;SDS011;2975;50.956;6.962;2022-12-18T04:28:10;16.20;;;7.57;;
5898;SDS011;2975;50.956;6.962;2022-12-18T04:30:35;14.33;;;7.43;;
5898;SDS011;2975;50.956;6.962;2022-12-18T04:33:01;18.17;;;7.67;;
5898;SDS011;2975;50.956;6.962;2022-12-18T04:35:26;13.13;;;7.27;;
5898;SDS011;2975;50.956;6.962;2022-12-18T04:37:52;16.53;;;7.90;;
5898;SDS011;2975;50.956;6.962;2022-12-18T04:40:18;14.60;;;7.60;;
5898;SDS011;2975;50.956;6.962;2022-12-18T04:42:43;15.60;;;7.43;;
5898;SDS011;2975;50.956;6.962;2022-12-18T04:45:09;13.67;;;7.57;;
5898;SDS011;2975;50.956;6.962;2022-12-18T04:47:35;14.47;;;8.10;;
5898;SDS011;2975;50.956;6.962;2022-12-18T04:50:00;14.97;;;7.00;;
5898;SDS011;2975;50.956;6.962;2022-12-18T04:52:26;14.60;;;7.80;;
5898;SDS011;2975;50.956;6.962;2022-12-18T04:54:52;16.90;;;8.47;;
5898;SDS011;2975;50.956;6.962;2022-12-18T04:57:17;12.90;;;7.87;;
5898;SDS011;2975;50.956;6.962;2022-12-18T04:59:43;15.13;;;7.60;;
5898;SDS011;2975;50.956;6.962;2022-12-18T05:02:09;13.67;;;6.73;;
5898;SDS011;2975;50.956;6.962;2022-12-18T05:04:35;12.30;;;7.03;;
5898;SDS011;2975;50.956;6.962;2022-12-18T05:07:00;15.17;;;7.93;;
5898;SDS011;2975;50.956;6.962;2022-12-18T05:09:26;15.37;;;7.63;;
5898;SDS011;2975;50.956;6.962;2022-12-18T05:11:51;12.67;;;7.27;;
5898;SDS011;2975;50.956;6.962;2022-12-18T05:14:17;15.23;;;7.53;;
5898;SDS011;2975;50.956;6.962;2022-12-18T05:16:42;11.20;;;6.63;;
5898;SDS011;2975;50.956;6.962;2022-12-18T05:19:08;10.90;;;6.30;;
5898;SDS011;2975;50.956;6.962;2022-12-18T05:21:34;10.57;;;6.37;;
5898;SDS011;2975;50.956;6.962;2022-12-18T05:23:59;11.33;;;6.23;;
5898;SDS011;2975;50.956;6.962;2022-12-18T05:26:25;12.07;;;6.67;;
5898;SDS011;2975;50.956;6.962;2022-12-18T05:28:50;13.03;;;6.37;;
5898;SDS011;2975;50.956;6.962;2022-12-18T05:31:16;12.23;;;6.83;;
5898;SDS011;2975;50.956;6.962;2022-12-18T05:33:42;14.93;;;6.17;;
5898;SDS011;2975;50.956;6.962;2022-12-18T05:36:09;11.77;;;6.03;;
5898;SDS011;2975;50.956;6.962;2022-12-18T05:38:36;15.03;;;6.10;;
5898;SDS011;2975;50.956;6.962;2022-12-18T05:41:03;12.93;;;6.80;;
5898;SDS011;2975;50.956;6.962;2022-12-18T05:43:29;12.53;;;6.20;;
5898;SDS011;2975;50.956;6.962;2022-12-18T05:45:54;11.97;;;6.57;;
5898;SDS011;2975;50.956;6.962;2022-12-18T05:48:21;11.93;;;5.90;;
5898;SDS011;2975;50.956;6.962;2022-12-18T05:50:48;12.63;;;7.17;;
5898;SDS011;2975;50.956;6.962;2022-12-18T05:53:15;13.27;;;6.53;;
5898;SDS011;2975;50.956;6.962;2022-12-18T05:55:43;14.33;;;6.30;;
5898;SDS011;2975;50.956;6.962;2022-12-18T05:58:09;13.30;;;6.97;;
5898;SDS011;2975;50.956;6.962;2022-12-18T06:00:38;11.77;;;6.73;;
5898;SDS011;2975;50.956;6.962;2022-12-18T06:03:07;14.23;;;6.93;;
5898;SDS011;2975;50.956;6.962;2022-12-18T06:05:38;11.37;;;6.10;;
5898;SDS011;2975;50.956;6.962;2022-12-18T06:08:05;15.00;;;7.50;;
5898;SDS011;2975;50.956;6.962;2022-12-18T06:10:31;13.60;;;7.97;;
5898;SDS011;2975;50.956;6.962;2022-12-18T06:12:57;15.23;;;7.17;;
5898;SDS011;2975;50.956;6.962;2022-12-18T06:15:23;15.27;;;7.63;;
5898;SDS011;2975;50.956;6.962;2022-12-18T06:17:49;15.47;;;8.53;;
5898;SDS011;2975;50.956;6.962;2022-12-18T06:20:15;17.43;;;7.60;;
5898;SDS011;2975;50.956;6.962;2022-12-18T06:22:40;14.97;;;7.73;;
5898;SDS011;2975;50.956;6.962;2022-12-18T06:25:06;15.97;;;7.97;;
5898;SDS011;2975;50.956;6.962;2022-12-18T06:27:32;15.73;;;8.20;;
5898;SDS011;2975;50.956;6.962;2022-12-18T06:29:58;16.17;;;8.17;;
5898;SDS011;2975;50.956;6.962;2022-12-18T06:32:24;16.37;;;8.30;;
5898;SDS011;2975;50.956;6.962;2022-12-18T06:34:50;14.13;;;8.33;;
5898;SDS011;2975;50.956;6.962;2022-12-18T06:37:16;17.63;;;8.67;;
5898;SDS011;2975;50.956;6.962;2022-12-18T06:39:41;16.30;;;7.53;;
5898;SDS011;2975;50.956;6.962;2022-12-18T06:42:07;19.17;;;8.67;;
5898;SDS011;2975;50.956;6.962;2022-12-18T06:44:32;16.97;;;8.20;;
5898;SDS011;2975;50.956;6.962;2022-12-18T06:46:58;16.73;;;8.83;;
5898;SDS011;2975;50.956;6.962;2022-12-18T06:49:24;16.67;;;8.63;;
5898;SDS011;2975;50.956;6.962;2022-12-18T06:51:50;15.07;;;7.90;;
5898;SDS011;2975;50.956;6.962;2022-12-18T06:54:15;16.30;;;7.53;;
5898;SDS011;2975;50.956;6.962;2022-12-18T06:56:41;15.90;;;7.93;;
5898;SDS011;2975;50.956;6.962;2022-12-18T06:59:06;17.57;;;9.33;;
5898;SDS011;2975;50.956;6.962;2022-12-18T07:01:32;17.07;;;8.30;;
5898;SDS011;2975;50.956;6.962;2022-12-18T07:03:58;16.00;;;8.03;;
5898;SDS011;2975;50.956;6.962;2022-12-18T07:06:24;14.97;;;8.00;;
5898;SDS011;2975;50.956;6.962;2022-12-18T07:08:50;16.60;;;8.67;;
5898;SDS011;2975;50.956;6.962;2022-12-18T07:11:18;18.70;;;8.30;;
5898;SDS011;2975;50.956;6.962;2022-12-18T07:13:44;17.07;;;8.10;;
5898;SDS011;2975;50.956;6.962;2022-12-18T07:16:11;17.03;;;8.60;;
5898;SDS011;2975;50.956;6.962;2022-12-18T07:18:42;16.33;;;8.43;;
5898;SDS011;2975;50.956;6.962;2022-12-18T07:21:09;16.50;;;8.77;;
5898;SDS011;2975;50.956;6.962;2022-12-18T07:23:36;16.70;;;9.03;;
5898;SDS011;2975;50.956;6.962;2022-12-18T07:26:05;19.73;;;9.03;;
5898;SDS011;2975;50.956;6.962;2022-12-18T07:28:33;17.60;;;8.50;;
5898;SDS011;2975;50.956;6.962;2022-12-18T07:31:02;15.63;;;8.70;;
5898;SDS011;2975;50.956;6.962;2022-12-18T07:33:28;19.67;;;9.47;;
5898;SDS011;2975;50.956;6.962;2022-12-18T07:35:54;19.50;;;9.27;;
5898;SDS011;2975;50.956;6.962;2022-12-18T07:38:20;19.03;;;9.70;;
5898;SDS011;2975;50.956;6.962;2022-12-18T07:40:45;16.80;;;9.03;;
5898;SDS011;2975;50.956;6.962;2022-12-18T07:43:11;17.67;;;9.67;;
5898;SDS011;2975;50.956;6.962;2022-12-18T07:45:36;19.27;;;9.07;;
5898;SDS011;2975;50.956;6.962;2022-12-18T07:48:02;18.30;;;9.20;;
5898;SDS011;2975;50.956;6.962;2022-12-18T07:50:28;15.97;;;9.43;;
5898;SDS011;2975;50.956;6.962;2022-12-18T07:52:53;20.43;;;8.53;;
5898;SDS011;2975;50.956;6.962;2022-12-18T07:55:19;21.93;;;10.00;;
5898;SDS011;2975;50.956;6.962;2022-12-18T07:57:44;17.83;;;9.63;;
5898;SDS011;2975;50.956;6.962;2022-12-18T08:00:10;19.37;;;9.40;;
5898;SDS011;2975;50.956;6.962;2022-12-18T08:02:37;21.83;;;9.20;;
5898;SDS011;2975;50.956;6.962;2022-12-18T08:05:02;20.43;;;9.13;;
5898;SDS011;2975;50.956;6.962;2022-12-18T08:07:28;18.53;;;9.30;;
5898;SDS011;2975;50.956;6.962;2022-12-18T08:09:54;17.07;;;9.33;;
5898;SDS011;2975;50.956;6.962;2022-12-18T08:12:19;16.87;;;9.57;;
5898;SDS011;2975;50.956;6.962;2022-12-18T08:14:45;16.43;;;8.87;;
5898;SDS011;2975;50.956;6.962;2022-12-18T08:17:10;16.43;;;8.83;;
5898;SDS011;2975;50.956;6.962;2022-12-18T08:19:36;17.23;;;9.37;;
5898;SDS011;2975;50.956;6.962;2022-12-18T08:22:01;18.23;;;8.43;;
5898;SDS011;2975;50.956;6.962;2022-12-18T08:24:27;19.57;;;9.80;;
5898;SDS011;2975;50.956;6.962;2022-12-18T08:26:53;19.27;;;8.73;;
5898;SDS011;2975;50.956;6.962;2022-12-18T08:29:18;17.27;;;9.60;;
5898;SDS011;2975;50.956;6.962;2022-12-18T08:31:44;17.30;;;8.13;;
5898;SDS011;2975;50.956;6.962;2022-12-18T08:34:10;14.07;;;7.87;;
5898;SDS011;2975;50.956;6.962;2022-12-18T08:36:36;14.90;;;8.23;;
5898;SDS011;2975;50.956;6.962;2022-12-18T08:39:02;19.70;;;8.30;;
5898;SDS011;2975;50.956;6.962;2022-12-18T08:41:27;17.30;;;8.97;;
5898;SDS011;2975;50.956;6.962;2022-12-18T08:43:53;18.03;;;9.00;;
5898;SDS011;2975;50.956;6.962;2022-12-18T08:46:38;17.10;;;8.77;;
5898;SDS011;2975;50.956;6.962;2022-12-18T08:49:05;17.87;;;8.77;;
5898;SDS011;2975;50.956;6.962;2022-12-18T08:51:33;18.57;;;9.50;;
5898;SDS011;2975;50.956;6.962;2022-12-18T08:53:59;18.17;;;8.30;;
5898;SDS011;2975;50.956;6.962;2022-12-18T08:56:24;15.73;;;8.67;;
5898;SDS011;2975;50.956;6.962;2022-12-18T08:58:54;16.60;;;8.13;;
5898;SDS011;2975;50.956;6.962;2022-12-18T09:01:20;15.47;;;8.03;;
5898;SDS011;2975;50.956;6.962;2022-12-18T09:03:46;15.47;;;8.07;;
5898;SDS011;2975;50.956;6.962;2022-12-18T09:06:15;17.67;;;9.07;;
5898;SDS011;2975;50.956;6.962;2022-12-18T09:08:42;25.33;;;9.10;;
5898;SDS011;2975;50.956;6.962;2022-12-18T09:11:30;22.87;;;8.00;;
5898;SDS011;2975;50.956;6.962;2022-12-18T09:13:56;17.87;;;8.47;;
5898;SDS011;2975;50.956;6.962;2022-12-18T09:16:23;17.43;;;8.37;;
5898;SDS011;2975;50.956;6.962;2022-12-18T09:18:49;14.13;;;8.33;;
5898;SDS011;2975;50.956;6.962;2022-12-18T09:21:16;17.20;;;8.27;;
5898;SDS011;2975;50.956;6.962;2022-12-18T09:23:48;15.10;;;8.23;;
5898;SDS011;2975;50.956;6.962;2022-12-18T09:26:14;16.03;;;8.53;;
5898;SDS011;2975;50.956;6.962;2022-12-18T09:28:40;16.43;;;7.93;;
5898;SDS011;2975;50.956;6.962;2022-12-18T09:31:06;12.77;;;7.07;;
5898;SDS011;2975;50.956;6.962;2022-12-18T09:33:33;14.37;;;8.07;;
5898;SDS011;2975;50.956;6.962;2022-12-18T09:36:00;13.97;;;7.37;;
5898;SDS011;2975;50.956;6.962;2022-12-18T09:38:28;18.50;;;8.83;;
5898;SDS011;2975;50.956;6.962;2022-12-18T09:40:55;14.70;;;7.53;;
5898;SDS011;2975;50.956;6.962;2022-12-18T09:43:26;15.40;;;8.67;;
5898;SDS011;2975;50.956;6.962;2022-12-18T09:45:59;15.87;;;7.67;;
5898;SDS011;2975;50.956;6.962;2022-12-18T09:48:34;19.60;;;8.10;;
5898;SDS011;2975;50.956;6.962;2022-12-18T09:51:22;18.37;;;8.97;;
5898;SDS011;2975;50.956;6.962;2022-12-18T09:54:02;15.33;;;8.77;;
5898;SDS011;2975;50.956;6.962;2022-12-18T09:56:34;14.53;;;7.73;;
5898;SDS011;2975;50.956;6.962;2022-12-18T09:59:04;15.83;;;7.97;;
5898;SDS011;2975;50.956;6.962;2022-12-18T10:01:31;15.13;;;8.20;;
5898;SDS011;2975;50.956;6.962;2022-12-18T10:03:57;12.07;;;7.10;;
5898;SDS011;2975;50.956;6.962;2022-12-18T10:06:36;15.90;;;8.50;;
5898;SDS011;2975;50.956;6.962;2022-12-18T10:09:15;15.73;;;9.27;;
5898;SDS011;2975;50.956;6.962;2022-12-18T10:27:51;15.00;;;8.20;;
5898;SDS011;2975;50.956;6.962;2022-12-18T10:30:21;17.77;;;8.53;;
5898;SDS011;2975;50.956;6.962;2022-12-18T10:32:48;18.13;;;8.07;;
5898;SDS011;2975;50.956;6.962;2022-12-18T10:35:17;14.53;;;7.50;;
5898;SDS011;2975;50.956;6.962;2022-12-18T10:38:03;15.63;;;8.00;;
5898;SDS011;2975;50.956;6.962;2022-12-18T10:40:53;15.47;;;8.63;;
5898;SDS011;2975;50.956;6.962;2022-12-18T10:43:33;13.53;;;7.50;;
5898;SDS011;2975;50.956;6.962;2022-12-18T10:48:34;16.80;;;8.40;;
5898;SDS011;2975;50.956;6.962;2022-12-18T10:51:04;17.63;;;8.27;;
5898;SDS011;2975;50.956;6.962;2022-12-18T10:53:31;17.30;;;8.40;;
5898;SDS011;2975;50.956;6.962;2022-12-18T10:55:59;16.70;;;8.40;;
5898;SDS011;2975;50.956;6.962;2022-12-18T11:01:05;15.03;;;8.43;;
5898;SDS011;2975;50.956;6.962;2022-12-18T11:03:41;14.87;;;8.23;;
5898;SDS011;2975;50.956;6.962;2022-12-18T11:06:27;16.03;;;8.33;;
5898;SDS011;2975;50.956;6.962;2022-12-18T11:09:05;15.10;;;8.23;;
5898;SDS011;2975;50.956;6.962;2022-12-18T11:11:48;16.87;;;8.03;;
5898;SDS011;2975;50.956;6.962;2022-12-18T11:15:02;17.60;;;8.27;;
5898;SDS011;2975;50.956;6.962;2022-12-18T11:17:16;15.17;;;7.87;;
5898;SDS011;2975;50.956;6.962;2022-12-18T11:19:44;14.60;;;8.50;;
5898;SDS011;2975;50.956;6.962;2022-12-18T11:25:36;14.97;;;9.17;;
5898;SDS011;2975;50.956;6.962;2022-12-18T11:27:37;15.87;;;8.73;;
5898;SDS011;2975;50.956;6.962;2022-12-18T11:30:20;15.30;;;7.70;;
5898;SDS011;2975;50.956;6.962;2022-12-18T11:32:49;17.40;;;9.27;;
5898;SDS011;2975;50.956;6.962;2022-12-18T11:38:27;16.67;;;9.37;;
5898;SDS011;2975;50.956;6.962;2022-12-18T11:46:34;17.10;;;8.97;;
5898;SDS011;2975;50.956;6.962;2022-12-18T11:49:33;16.77;;;8.03;;
5898;SDS011;2975;50.956;6.962;2022-12-18T11:52:07;15.30;;;8.50;;
5898;SDS011;2975;50.956;6.962;2022-12-18T11:54:40;19.20;;;9.13;;
5898;SDS011;2975;50.956;6.962;2022-12-18T11:57:28;16.03;;;8.30;;
5898;SDS011;2975;50.956;6.962;2022-12-18T12:02:39;16.87;;;9.67;;
5898;SDS011;2975;50.956;6.962;2022-12-18T12:08:26;18.93;;;8.80;;
5898;SDS011;2975;50.956;6.962;2022-12-18T12:13:49;16.27;;;8.37;;
5898;SDS011;2975;50.956;6.962;2022-12-18T12:16:17;17.87;;;9.03;;
5898;SDS011;2975;50.956;6.962;2022-12-18T12:21:39;18.90;;;9.53;;
5898;SDS011;2975;50.956;6.962;2022-12-18T12:24:10;19.17;;;9.27;;
5898;SDS011;2975;50.956;6.962;2022-12-18T12:29:55;17.80;;;9.43;;
5898;SDS011;2975;50.956;6.962;2022-12-18T12:32:45;14.40;;;8.70;;
5898;SDS011;2975;50.956;6.962;2022-12-18T12:40:39;23.20;;;12.90;;
5898;SDS011;2975;50.956;6.962;2022-12-18T12:46:10;18.70;;;9.40;;
5898;SDS011;2975;50.956;6.962;2022-12-18T12:53:50;19.83;;;9.73;;
5898;SDS011;2975;50.956;6.962;2022-12-18T12:56:18;18.00;;;10.60;;
5898;SDS011;2975;50.956;6.962;2022-12-18T12:58:52;19.27;;;9.83;;
5898;SDS011;2975;50.956;6.962;2022-12-18T13:01:32;19.90;;;9.93;;
5898;SDS011;2975;50.956;6.962;2022-12-18T13:04:08;21.80;;;10.93;;
5898;SDS011;2975;50.956;6.962;2022-12-18T13:09:20;21.47;;;11.60;;
5898;SDS011;2975;50.956;6.962;2022-12-18T13:11:46;21.97;;;11.00;;
5898;SDS011;2975;50.956;6.962;2022-12-18T13:19:49;20.20;;;10.87;;
5898;SDS011;2975;50.956;6.962;2022-12-18T13:22:22;21.77;;;11.50;;
5898;SDS011;2975;50.956;6.962;2022-12-18T13:24:53;23.77;;;11.43;;
5898;SDS011;2975;50.956;6.962;2022-12-18T13:28:01;19.40;;;10.80;;
5898;SDS011;2975;50.956;6.962;2022-12-18T13:35:39;25.07;;;11.07;;
5898;SDS011;2975;50.956;6.962;2022-12-18T13:38:20;19.23;;;10.40;;
5898;SDS011;2975;50.956;6.962;2022-12-18T13:43:33;21.47;;;11.13;;
5898;SDS011;2975;50.956;6.962;2022-12-18T13:48:50;23.63;;;11.70;;
5898;SDS011;2975;50.956;6.962;2022-12-18T13:51:22;21.97;;;10.17;;
5898;SDS011;2975;50.956;6.962;2022-12-18T13:56:25;24.40;;;10.80;;
5898;SDS011;2975;50.956;6.962;2022-12-18T14:01:42;21.63;;;10.73;;
5898;SDS011;2975;50.956;6.962;2022-12-18T14:04:09;21.07;;;11.50;;
5898;SDS011;2975;50.956;6.962;2022-12-18T14:06:46;20.27;;;10.63;;
5898;SDS011;2975;50.956;6.962;2022-12-18T14:09:15;21.30;;;11.17;;
5898;SDS011;2975;50.956;6.962;2022-12-18T14:11:46;19.33;;;10.20;;
5898;SDS011;2975;50.956;6.962;2022-12-18T14:14:16;20.57;;;10.70;;
5898;SDS011;2975;50.956;6.962;2022-12-18T14:16:43;21.27;;;10.83;;
5898;SDS011;2975;50.956;6.962;2022-12-18T14:19:15;22.00;;;10.97;;
5898;SDS011;2975;50.956;6.962;2022-12-18T14:21:46;21.40;;;11.90;;
5898;SDS011;2975;50.956;6.962;2022-12-18T14:24:19;25.67;;;13.67;;
5898;SDS011;2975;50.956;6.962;2022-12-18T14:26:47;23.67;;;11.53;;
5898;SDS011;2975;50.956;6.962;2022-12-18T14:29:24;22.77;;;11.23;;
5898;SDS011;2975;50.956;6.962;2022-12-18T14:32:11;24.53;;;12.70;;
5898;SDS011;2975;50.956;6.962;2022-12-18T14:34:43;25.60;;;11.93;;
5898;SDS011;2975;50.956;6.962;2022-12-18T14:37:11;24.27;;;12.23;;
5898;SDS011;2975;50.956;6.962;2022-12-18T14:39:40;24.53;;;13.17;;
5898;SDS011;2975;50.956;6.962;2022-12-18T14:42:05;19.57;;;11.53;;
5898;SDS011;2975;50.956;6.962;2022-12-18T14:44:35;23.17;;;11.30;;
5898;SDS011;2975;50.956;6.962;2022-12-18T14:47:01;22.73;;;11.20;;
5898;SDS011;2975;50.956;6.962;2022-12-18T14:49:33;22.53;;;12.47;;
5898;SDS011;2975;50.956;6.962;2022-12-18T14:52:03;22.70;;;11.93;;
5898;SDS011;2975;50.956;6.962;2022-12-18T14:54:30;21.43;;;11.27;;
5898;SDS011;2975;50.956;6.962;2022-12-18T14:59:27;24.27;;;11.37;;
5898;SDS011;2975;50.956;6.962;2022-12-18T15:01:57;24.27;;;12.47;;
5898;SDS011;2975;50.956;6.962;2022-12-18T15:04:25;31.70;;;13.27;;
5898;SDS011;2975;50.956;6.962;2022-12-18T15:09:39;26.33;;;13.20;;
5898;SDS011;2975;50.956;6.962;2022-12-18T15:14:57;30.83;;;13.23;;
5898;SDS011;2975;50.956;6.962;2022-12-18T15:17:23;27.57;;;12.67;;
5898;SDS011;2975;50.956;6.962;2022-12-18T15:19:50;21.73;;;12.23;;
5898;SDS011;2975;50.956;6.962;2022-12-18T15:22:25;22.27;;;11.87;;
5898;SDS011;2975;50.956;6.962;2022-12-18T15:24:58;26.60;;;13.70;;
5898;SDS011;2975;50.956;6.962;2022-12-18T15:32:33;20.97;;;12.07;;
5898;SDS011;2975;50.956;6.962;2022-12-18T15:37:34;25.53;;;13.60;;
5898;SDS011;2975;50.956;6.962;2022-12-18T15:40:00;28.53;;;13.60;;
5898;SDS011;2975;50.956;6.962;2022-12-18T15:42:27;22.57;;;11.90;;
5898;SDS011;2975;50.956;6.962;2022-12-18T15:45:11;27.27;;;13.80;;
5898;SDS011;2975;50.956;6.962;2022-12-18T15:47:38;25.17;;;12.30;;
5898;SDS011;2975;50.956;6.962;2022-12-18T15:50:04;25.67;;;12.80;;
5898;SDS011;2975;50.956;6.962;2022-12-18T15:52:31;22.80;;;12.93;;
5898;SDS011;2975;50.956;6.962;2022-12-18T15:55:15;27.23;;;13.70;;
5898;SDS011;2975;50.956;6.962;2022-12-18T15:58:01;28.40;;;14.00;;
5898;SDS011;2975;50.956;6.962;2022-12-18T16:00:27;24.53;;;13.37;;
5898;SDS011;2975;50.956;6.962;2022-12-18T16:02:52;31.30;;;14.30;;
5898;SDS011;2975;50.956;6.962;2022-12-18T16:05:19;23.23;;;12.73;;
5898;SDS011;2975;50.956;6.962;2022-12-18T16:07:46;24.13;;;14.63;;
5898;SDS011;2975;50.956;6.962;2022-12-18T16:10:12;33.07;;;13.77;;
5898;SDS011;2975;50.956;6.962;2022-12-18T16:12:38;26.10;;;13.40;;
5898;SDS011;2975;50.956;6.962;2022-12-18T16:15:04;27.97;;;13.97;;
5898;SDS011;2975;50.956;6.962;2022-12-18T16:17:31;24.77;;;12.17;;
5898;SDS011;2975;50.956;6.962;2022-12-18T16:19:56;24.90;;;13.23;;
5898;SDS011;2975;50.956;6.962;2022-12-18T16:22:25;26.10;;;12.90;;
5898;SDS011;2975;50.956;6.962;2022-12-18T16:24:53;28.90;;;14.00;;
5898;SDS011;2975;50.956;6.962;2022-12-18T16:27:20;30.33;;;14.77;;
5898;SDS011;2975;50.956;6.962;2022-12-18T16:29:47;29.40;;;15.37;;
5898;SDS011;2975;50.956;6.962;2022-12-18T16:32:14;30.57;;;14.93;;
5898;SDS011;2975;50.956;6.962;2022-12-18T16:34:42;28.33;;;14.67;;
5898;SDS011;2975;50.956;6.962;2022-12-18T16:37:09;27.20;;;14.60;;
5898;SDS011;2975;50.956;6.962;2022-12-18T16:39:37;34.90;;;16.77;;
5898;SDS011;2975;50.956;6.962;2022-12-18T16:42:09;32.63;;;15.00;;
5898;SDS011;2975;50.956;6.962;2022-12-18T16:44:41;30.20;;;13.57;;
5898;SDS011;2975;50.956;6.962;2022-12-18T16:47:08;31.10;;;14.73;;
5898;SDS011;2975;50.956;6.962;2022-12-18T16:49:33;31.40;;;16.13;;
5898;SDS011;2975;50.956;6.962;2022-12-18T16:51:59;29.63;;;14.80;;
5898;SDS011;2975;50.956;6.962;2022-12-18T16:54:25;28.70;;;14.83;;
5898;SDS011;2975;50.956;6.962;2022-12-18T16:56:54;29.87;;;14.57;;
5898;SDS011;2975;50.956;6.962;2022-12-18T16:59:20;29.17;;;14.83;;
5898;SDS011;2975;50.956;6.962;2022-12-18T17:01:46;29.23;;;15.07;;
5898;SDS011;2975;50.956;6.962;2022-12-18T17:04:12;29.57;;;15.03;;
5898;SDS011;2975;50.956;6.962;2022-12-18T17:06:40;36.40;;;15.07;;
5898;SDS011;2975;50.956;6.962;2022-12-18T17:09:08;29.30;;;13.87;;
5898;SDS011;2975;50.956;6.962;2022-12-18T17:11:36;34.03;;;15.70;;
5898;SDS011;2975;50.956;6.962;2022-12-18T17:14:08;28.17;;;14.43;;
5898;SDS011;2975;50.956;6.962;2022-12-18T17:16:36;33.43;;;15.80;;
5898;SDS011;2975;50.956;6.962;2022-12-18T17:19:01;31.50;;;14.77;;
5898;SDS011;2975;50.956;6.962;2022-12-18T17:21:27;27.83;;;14.73;;
5898;SDS011;2975;50.956;6.962;2022-12-18T17:23:53;27.57;;;14.23;;
5898;SDS011;2975;50.956;6.962;2022-12-18T17:26:18;29.17;;;15.30;;
5898;SDS011;2975;50.956;6.962;2022-12-18T17:28:44;30.77;;;16.00;;